sensor_id;sensor_type;location;lat;lon;timestamp;pressure;altitude;pressure_sealevel;temperature;humidity
75594;BME280;64176;49.156;7.810;2023-08-17T00:01:09;99297.06;;;18.29;100.00
75594;BME280;64176;49.156;7.810;2023-08-17T00:03:53;99286.25;;;18.08;100.00
75594;BME280;64176;49.156;7.810;2023-08-17T00:06:37;99286.59;;;18.29;100.00
75594;BME280;64176;49.156;7.810;2023-08-17T00:09:21;99277.69;;;18.02;100.00
75594;BME280;64176;49.156;7.810;2023-08-17T00:12:05;99279.84;;;17.85;100.00
75594;BME280;64176;49.156;7.810;2023-08-17T00:14:50;99283.03;;;17.97;100.00
75594;BME280;64176;49.156;7.810;2023-08-17T00:17:34;99270.50;;;18.11;100.00
75594;BME280;64176;49.156;7.810;2023-08-17T00:20:18;99275.66;;;18.13;100.00
75594;BME280;64176;49.156;7.810;2023-08-17T00:23:02;99271.31;;;18.12;100.00
75594;BME280;64176;49.156;7.810;2023-08-17T00:25:47;99268.69;;;18.12;100.00
75594;BME280;64176;49.156;7.810;2023-08-17T00:28:32;99271.56;;;18.03;100.00
75594;BME280;64176;49.156;7.810;2023-08-17T00:31:16;99270.59;;;18.07;100.00
75594;BME280;64176;49.156;7.810;2023-08-17T00:34:00;99271.94;;;17.88;100.00
75594;BME280;64176;49.156;7.810;2023-08-17T00:36:44;99269.72;;;18.06;100.00
75594;BME280;64176;49.156;7.810;2023-08-17T00:39:28;99261.94;;;18.03;100.00
75594;BME280;64176;49.156;7.810;2023-08-17T00:42:17;99263.53;;;18.10;100.00
75594;BME280;64176;49.156;7.810;2023-08-17T00:45:01;99269.09;;;17.97;100.00
75594;BME280;64176;49.156;7.810;2023-08-17T00:47:46;99260.16;;;18.05;99.89
75594;BME280;64176;49.156;7.810;2023-08-17T00:50:31;99259.56;;;17.94;100.00
75594;BME280;64176;49.156;7.810;2023-08-17T00:53:15;99260.25;;;18.01;99.77
75594;BME280;64176;49.156;7.810;2023-08-17T00:56:02;99256.91;;;17.96;100.00
75594;BME280;64176;49.156;7.810;2023-08-17T00:58:46;99259.63;;;17.91;100.00
75594;BME280;64176;49.156;7.810;2023-08-17T01:01:31;99249.31;;;17.87;100.00
75594;BME280;64176;49.156;7.810;2023-08-17T01:04:16;99238.97;;;17.80;100.00
75594;BME280;64176;49.156;7.810;2023-08-17T01:07:02;99244.84;;;17.90;100.00
75594;BME280;64176;49.156;7.810;2023-08-17T01:09:49;99234.00;;;17.70;100.00
75594;BME280;64176;49.156;7.810;2023-08-17T01:12:41;99237.97;;;17.47;100.00
75594;BME280;64176;49.156;7.810;2023-08-17T01:15:37;99236.97;;;17.55;100.00
75594;BME280;64176;49.156;7.810;2023-08-17T01:18:29;99237.19;;;17.82;100.00
75594;BME280;64176;49.156;7.810;2023-08-17T01:21:16;99237.72;;;17.97;100.00
75594;BME280;64176;49.156;7.810;2023-08-17T01:24:03;99236.78;;;17.64;100.00
75594;BME280;64176;49.156;7.810;2023-08-17T01:26:47;99236.31;;;17.82;100.00
75594;BME280;64176;49.156;7.810;2023-08-17T01:29:31;99237.44;;;17.72;100.00
75594;BME280;64176;49.156;7.810;2023-08-17T01:32:16;99236.53;;;17.74;100.00
75594;BME280;64176;49.156;7.810;2023-08-17T01:35:18;99233.56;;;17.88;100.00
75594;BME280;64176;49.156;7.810;2023-08-17T01:38:12;99225.75;;;17.88;100.00
75594;BME280;64176;49.156;7.810;2023-08-17T01:40:56;99231.03;;;17.46;100.00
75594;BME280;64176;49.156;7.810;2023-08-17T01:43:42;99233.00;;;17.75;100.00
75594;BME280;64176;49.156;7.810;2023-08-17T01:46:34;99202.03;;;17.57;100.00
75594;BME280;64176;49.156;7.810;2023-08-17T01:49:22;99231.97;;;17.82;100.00
75594;BME280;64176;49.156;7.810;2023-08-17T01:52:06;99226.47;;;17.56;100.00
75594;BME280;64176;49.156;7.810;2023-08-17T01:54:50;99231.34;;;17.71;100.00
75594;BME280;64176;49.156;7.810;2023-08-17T01:57:37;99228.69;;;17.74;100.00
75594;BME280;64176;49.156;7.810;2023-08-17T02:00:21;99232.00;;;17.81;100.00
75594;BME280;64176;49.156;7.810;2023-08-17T02:03:05;99231.13;;;17.80;100.00
75594;BME280;64176;49.156;7.810;2023-08-17T02:05:49;99234.34;;;17.92;100.00
75594;BME280;64176;49.156;7.810;2023-08-17T02:08:33;99234.28;;;17.95;100.00
75594;BME280;64176;49.156;7.810;2023-08-17T02:11:18;99226.75;;;17.81;100.00
75594;BME280;64176;49.156;7.810;2023-08-17T02:14:03;99232.25;;;17.70;100.00
75594;BME280;64176;49.156;7.810;2023-08-17T02:16:47;99219.94;;;17.37;100.00
75594;BME280;64176;49.156;7.810;2023-08-17T02:19:31;99227.00;;;17.33;100.00
75594;BME280;64176;49.156;7.810;2023-08-17T02:22:16;99220.03;;;17.71;100.00
75594;BME280;64176;49.156;7.810;2023-08-17T02:25:00;99228.78;;;17.70;100.00
75594;BME280;64176;49.156;7.810;2023-08-17T02:27:47;99221.81;;;17.69;100.00
75594;BME280;64176;49.156;7.810;2023-08-17T02:30:31;99225.53;;;17.59;100.00
75594;BME280;64176;49.156;7.810;2023-08-17T02:33:16;99232.91;;;17.41;100.00
75594;BME280;64176;49.156;7.810;2023-08-17T02:36:00;99227.06;;;17.30;100.00
75594;BME280;64176;49.156;7.810;2023-08-17T02:38:47;99219.38;;;17.61;100.00
75594;BME280;64176;49.156;7.810;2023-08-17T02:41:31;99223.63;;;17.67;100.00
75594;BME280;64176;49.156;7.810;2023-08-17T02:44:16;99215.97;;;17.58;100.00
75594;BME280;64176;49.156;7.810;2023-08-17T02:47:00;99215.75;;;17.30;100.00
75594;BME280;64176;49.156;7.810;2023-08-17T02:49:45;99226.25;;;17.27;100.00
75594;BME280;64176;49.156;7.810;2023-08-17T02:52:29;99218.19;;;16.97;100.00
75594;BME280;64176;49.156;7.810;2023-08-17T02:55:13;99212.13;;;16.97;100.00
75594;BME280;64176;49.156;7.810;2023-08-17T02:57:57;99219.22;;;17.30;100.00
75594;BME280;64176;49.156;7.810;2023-08-17T03:00:41;99216.47;;;17.35;100.00
75594;BME280;64176;49.156;7.810;2023-08-17T03:03:25;99213.16;;;17.28;100.00
75594;BME280;64176;49.156;7.810;2023-08-17T03:06:11;99212.56;;;17.16;100.00
75594;BME280;64176;49.156;7.810;2023-08-17T03:08:57;99207.72;;;16.99;100.00
75594;BME280;64176;49.156;7.810;2023-08-17T03:11:41;99217.53;;;16.88;100.00
75594;BME280;64176;49.156;7.810;2023-08-17T03:14:25;99201.56;;;17.01;100.00
75594;BME280;64176;49.156;7.810;2023-08-17T03:17:09;99203.63;;;17.26;100.00
75594;BME280;64176;49.156;7.810;2023-08-17T03:19:53;99201.06;;;17.24;100.00
75594;BME280;64176;49.156;7.810;2023-08-17T03:22:37;99198.31;;;16.90;100.00
75594;BME280;64176;49.156;7.810;2023-08-17T03:25:23;99190.63;;;16.84;100.00
75594;BME280;64176;49.156;7.810;2023-08-17T03:28:07;99191.69;;;16.76;100.00
75594;BME280;64176;49.156;7.810;2023-08-17T03:30:55;99192.78;;;17.05;100.00
75594;BME280;64176;49.156;7.810;2023-08-17T03:33:39;99194.66;;;16.99;100.00
75594;BME280;64176;49.156;7.810;2023-08-17T03:36:24;99195.09;;;17.19;100.00
75594;BME280;64176;49.156;7.810;2023-08-17T03:39:08;99201.13;;;16.81;100.00
75594;BME280;64176;49.156;7.810;2023-08-17T03:41:55;99182.41;;;16.59;100.00
75594;BME280;64176;49.156;7.810;2023-08-17T03:44:39;99192.13;;;16.96;100.00
75594;BME280;64176;49.156;7.810;2023-08-17T03:47:25;99187.31;;;17.16;100.00
75594;BME280;64176;49.156;7.810;2023-08-17T03:50:09;99187.22;;;17.21;100.00
75594;BME280;64176;49.156;7.810;2023-08-17T03:52:54;99193.94;;;17.32;100.00
75594;BME280;64176;49.156;7.810;2023-08-17T03:55:45;99198.59;;;17.18;100.00
75594;BME280;64176;49.156;7.810;2023-08-17T03:58:29;99200.22;;;16.82;100.00
75594;BME280;64176;49.156;7.810;2023-08-17T04:01:17;99199.41;;;16.80;100.00
75594;BME280;64176;49.156;7.810;2023-08-17T04:04:01;99210.88;;;16.71;100.00
75594;BME280;64176;49.156;7.810;2023-08-17T04:06:46;99198.22;;;16.52;100.00
75594;BME280;64176;49.156;7.810;2023-08-17T04:09:30;99199.09;;;16.51;100.00
75594;BME280;64176;49.156;7.810;2023-08-17T04:12:14;99192.72;;;16.67;100.00
75594;BME280;64176;49.156;7.810;2023-08-17T04:14:58;99197.41;;;16.93;100.00
75594;BME280;64176;49.156;7.810;2023-08-17T04:17:43;99212.41;;;16.83;100.00
75594;BME280;64176;49.156;7.810;2023-08-17T04:20:27;99204.28;;;16.52;100.00
75594;BME280;64176;49.156;7.810;2023-08-17T04:23:11;99209.56;;;16.49;100.00
75594;BME280;64176;49.156;7.810;2023-08-17T04:25:55;99207.00;;;16.46;100.00
75594;BME280;64176;49.156;7.810;2023-08-17T04:28:39;99201.19;;;16.33;100.00
75594;BME280;64176;49.156;7.810;2023-08-17T04:31:23;99213.84;;;16.53;100.00
75594;BME280;64176;49.156;7.810;2023-08-17T04:34:15;99215.16;;;16.29;100.00
75594;BME280;64176;49.156;7.810;2023-08-17T04:37:04;99203.59;;;15.95;100.00
75594;BME280;64176;49.156;7.810;2023-08-17T04:39:48;99213.13;;;15.97;100.00
75594;BME280;64176;49.156;7.810;2023-08-17T04:42:37;99214.69;;;16.08;100.00
75594;BME280;64176;49.156;7.810;2023-08-17T04:45:21;99212.78;;;16.16;100.00
75594;BME280;64176;49.156;7.810;2023-08-17T04:48:06;99212.63;;;16.25;100.00
75594;BME280;64176;49.156;7.810;2023-08-17T04:50:53;99215.19;;;16.28;100.00
75594;BME280;64176;49.156;7.810;2023-08-17T04:53:37;99216.31;;;16.13;100.00
75594;BME280;64176;49.156;7.810;2023-08-17T04:56:21;99214.69;;;16.08;100.00
75594;BME280;64176;49.156;7.810;2023-08-17T04:59:05;99219.09;;;16.02;100.00
75594;BME280;64176;49.156;7.810;2023-08-17T05:01:49;99222.38;;;16.14;100.00
75594;BME280;64176;49.156;7.810;2023-08-17T05:04:33;99221.44;;;16.18;100.00
75594;BME280;64176;49.156;7.810;2023-08-17T05:07:17;99226.41;;;16.31;100.00
75594;BME280;64176;49.156;7.810;2023-08-17T05:10:01;99225.41;;;16.38;100.00
75594;BME280;64176;49.156;7.810;2023-08-17T05:12:47;99229.00;;;16.34;100.00
75594;BME280;64176;49.156;7.810;2023-08-17T05:15:31;99227.19;;;16.35;100.00
75594;BME280;64176;49.156;7.810;2023-08-17T05:18:16;99230.06;;;16.69;100.00
75594;BME280;64176;49.156;7.810;2023-08-17T05:21:02;99225.50;;;16.80;100.00
75594;BME280;64176;49.156;7.810;2023-08-17T05:23:49;99223.63;;;16.88;100.00
75594;BME280;64176;49.156;7.810;2023-08-17T05:26:34;99233.88;;;16.96;100.00
75594;BME280;64176;49.156;7.810;2023-08-17T05:29:21;99234.78;;;16.95;100.00
75594;BME280;64176;49.156;7.810;2023-08-17T05:32:05;99236.31;;;16.60;100.00
75594;BME280;64176;49.156;7.810;2023-08-17T05:34:51;99243.38;;;16.55;100.00
75594;BME280;64176;49.156;7.810;2023-08-17T05:37:37;99241.56;;;17.03;100.00
75594;BME280;64176;49.156;7.810;2023-08-17T05:40:21;99241.94;;;17.27;100.00
75594;BME280;64176;49.156;7.810;2023-08-17T05:43:05;99245.13;;;16.99;100.00
75594;BME280;64176;49.156;7.810;2023-08-17T05:45:49;99251.78;;;16.71;100.00
75594;BME280;64176;49.156;7.810;2023-08-17T05:48:33;99254.69;;;17.00;100.00
75594;BME280;64176;49.156;7.810;2023-08-17T05:51:17;99251.53;;;17.25;100.00
75594;BME280;64176;49.156;7.810;2023-08-17T05:54:01;99245.91;;;17.44;100.00
75594;BME280;64176;49.156;7.810;2023-08-17T05:56:45;99249.16;;;17.54;100.00
75594;BME280;64176;49.156;7.810;2023-08-17T05:59:31;99244.44;;;17.71;100.00
75594;BME280;64176;49.156;7.810;2023-08-17T06:02:15;99249.59;;;17.74;100.00
75594;BME280;64176;49.156;7.810;2023-08-17T06:04:59;99252.25;;;17.73;100.00
75594;BME280;64176;49.156;7.810;2023-08-17T06:07:45;99263.75;;;17.66;100.00
75594;BME280;64176;49.156;7.810;2023-08-17T06:10:29;99255.53;;;17.81;100.00
75594;BME280;64176;49.156;7.810;2023-08-17T06:13:15;99264.09;;;17.47;100.00
75594;BME280;64176;49.156;7.810;2023-08-17T06:15:59;99266.09;;;17.76;100.00
75594;BME280;64176;49.156;7.810;2023-08-17T06:18:43;99262.94;;;17.99;100.00
75594;BME280;64176;49.156;7.810;2023-08-17T06:21:27;99269.81;;;18.02;100.00
75594;BME280;64176;49.156;7.810;2023-08-17T06:24:11;99267.38;;;17.96;100.00
75594;BME280;64176;49.156;7.810;2023-08-17T06:26:55;99267.19;;;18.03;100.00
75594;BME280;64176;49.156;7.810;2023-08-17T06:29:42;99263.59;;;18.07;100.00
75594;BME280;64176;49.156;7.810;2023-08-17T06:32:29;99255.31;;;18.24;99.42
75594;BME280;64176;49.156;7.810;2023-08-17T06:35:16;99251.28;;;18.45;98.69
75594;BME280;64176;49.156;7.810;2023-08-17T06:38:00;99252.41;;;18.69;97.48
75594;BME280;64176;49.156;7.810;2023-08-17T06:40:45;99256.28;;;18.54;97.81
75594;BME280;64176;49.156;7.810;2023-08-17T06:43:29;99251.94;;;18.87;95.97
75594;BME280;64176;49.156;7.810;2023-08-17T06:46:13;99241.31;;;18.61;97.14
75594;BME280;64176;49.156;7.810;2023-08-17T06:48:57;99236.41;;;18.79;96.31
75594;BME280;64176;49.156;7.810;2023-08-17T06:51:40;99240.91;;;18.76;97.36
75594;BME280;64176;49.156;7.810;2023-08-17T06:54:24;99232.44;;;20.60;86.41
75594;BME280;64176;49.156;7.810;2023-08-17T06:57:08;99234.13;;;21.32;82.51
75594;BME280;64176;49.156;7.810;2023-08-17T06:59:52;99235.84;;;21.33;82.24
75594;BME280;64176;49.156;7.810;2023-08-17T07:02:36;99232.41;;;21.98;79.45
75594;BME280;64176;49.156;7.810;2023-08-17T07:05:20;99240.53;;;22.14;78.77
75594;BME280;64176;49.156;7.810;2023-08-17T07:08:05;99242.78;;;22.43;77.88
75594;BME280;64176;49.156;7.810;2023-08-17T07:10:50;99242.94;;;22.20;79.07
75594;BME280;64176;49.156;7.810;2023-08-17T07:13:34;99229.38;;;22.29;79.11
75594;BME280;64176;49.156;7.810;2023-08-17T07:16:18;99244.63;;;21.99;81.20
75594;BME280;64176;49.156;7.810;2023-08-17T07:19:02;99238.97;;;22.30;80.59
75594;BME280;64176;49.156;7.810;2023-08-17T07:21:47;99229.16;;;22.74;78.77
75594;BME280;64176;49.156;7.810;2023-08-17T07:24:31;99226.19;;;22.82;78.02
75594;BME280;64176;49.156;7.810;2023-08-17T07:27:17;99226.91;;;22.85;77.01
75594;BME280;64176;49.156;7.810;2023-08-17T07:30:01;99226.44;;;22.76;78.34
75594;BME280;64176;49.156;7.810;2023-08-17T07:32:45;99233.53;;;22.94;76.70
75594;BME280;64176;49.156;7.810;2023-08-17T07:35:29;99225.88;;;23.08;75.47
75594;BME280;64176;49.156;7.810;2023-08-17T07:38:13;99221.00;;;23.37;74.70
75594;BME280;64176;49.156;7.810;2023-08-17T07:40:57;99224.38;;;23.40;74.58
75594;BME280;64176;49.156;7.810;2023-08-17T07:43:41;99226.78;;;23.26;74.85
75594;BME280;64176;49.156;7.810;2023-08-17T07:46:25;99230.84;;;23.71;73.28
75594;BME280;64176;49.156;7.810;2023-08-17T07:49:11;99223.22;;;23.46;73.48
75594;BME280;64176;49.156;7.810;2023-08-17T07:51:55;99219.53;;;23.50;73.91
75594;BME280;64176;49.156;7.810;2023-08-17T07:54:39;99229.56;;;23.23;74.54
75594;BME280;64176;49.156;7.810;2023-08-17T07:57:23;99223.50;;;23.21;75.62
75594;BME280;64176;49.156;7.810;2023-08-17T08:00:10;99218.81;;;23.28;75.46
75594;BME280;64176;49.156;7.810;2023-08-17T08:02:55;99226.16;;;23.58;74.25
75594;BME280;64176;49.156;7.810;2023-08-17T08:05:39;99217.06;;;23.64;73.91
75594;BME280;64176;49.156;7.810;2023-08-17T08:08:23;99211.31;;;23.75;73.49
75594;BME280;64176;49.156;7.810;2023-08-17T08:11:06;99215.34;;;23.99;72.37
75594;BME280;64176;49.156;7.810;2023-08-17T08:13:53;99221.19;;;23.52;73.43
75594;BME280;64176;49.156;7.810;2023-08-17T08:16:40;99224.50;;;23.56;73.77
75594;BME280;64176;49.156;7.810;2023-08-17T08:19:24;99212.88;;;24.13;72.10
75594;BME280;64176;49.156;7.810;2023-08-17T08:22:08;99216.78;;;24.23;71.74
75594;BME280;64176;49.156;7.810;2023-08-17T08:24:52;99212.50;;;24.55;71.08
75594;BME280;64176;49.156;7.810;2023-08-17T08:27:38;99216.41;;;24.31;71.51
75594;BME280;64176;49.156;7.810;2023-08-17T08:30:22;99212.72;;;24.68;70.85
75594;BME280;64176;49.156;7.810;2023-08-17T08:33:06;99218.25;;;24.46;71.64
75594;BME280;64176;49.156;7.810;2023-08-17T08:35:53;99220.44;;;24.38;71.79
75594;BME280;64176;49.156;7.810;2023-08-17T08:38:37;99212.66;;;24.52;71.08
75594;BME280;64176;49.156;7.810;2023-08-17T08:41:21;99218.69;;;24.72;70.97
75594;BME280;64176;49.156;7.810;2023-08-17T08:44:05;99214.56;;;24.66;71.04
75594;BME280;64176;49.156;7.810;2023-08-17T08:46:49;99208.63;;;24.62;70.84
75594;BME280;64176;49.156;7.810;2023-08-17T08:49:39;99217.41;;;24.46;71.04
75594;BME280;64176;49.156;7.810;2023-08-17T08:52:28;99200.78;;;24.77;70.72
75594;BME280;64176;49.156;7.810;2023-08-17T08:55:18;99210.50;;;24.76;70.34
75594;BME280;64176;49.156;7.810;2023-08-17T08:58:04;99209.63;;;24.60;70.90
75594;BME280;64176;49.156;7.810;2023-08-17T09:00:48;99214.56;;;24.83;70.63
75594;BME280;64176;49.156;7.810;2023-08-17T09:03:32;99214.94;;;24.76;71.29
75594;BME280;64176;49.156;7.810;2023-08-17T09:06:17;99202.94;;;24.86;70.71
75594;BME280;64176;49.156;7.810;2023-08-17T09:09:05;99198.47;;;24.71;71.34
75594;BME280;64176;49.156;7.810;2023-08-17T09:11:54;99201.00;;;24.56;71.20
75594;BME280;64176;49.156;7.810;2023-08-17T09:14:38;99191.22;;;24.41;71.72
75594;BME280;64176;49.156;7.810;2023-08-17T09:17:25;99186.44;;;24.65;71.38
75594;BME280;64176;49.156;7.810;2023-08-17T09:20:10;99197.56;;;24.54;71.30
75594;BME280;64176;49.156;7.810;2023-08-17T09:23:03;99191.63;;;24.66;71.59
75594;BME280;64176;49.156;7.810;2023-08-17T09:25:49;99196.63;;;24.55;70.00
75594;BME280;64176;49.156;7.810;2023-08-17T09:28:38;99193.69;;;24.61;70.20
75594;BME280;64176;49.156;7.810;2023-08-17T09:31:26;99190.28;;;24.75;69.89
75594;BME280;64176;49.156;7.810;2023-08-17T09:34:10;99198.41;;;24.72;71.03
75594;BME280;64176;49.156;7.810;2023-08-17T09:36:57;99181.63;;;24.89;70.36
75594;BME280;64176;49.156;7.810;2023-08-17T09:39:45;99184.72;;;24.97;69.83
75594;BME280;64176;49.156;7.810;2023-08-17T09:42:35;99178.97;;;25.06;69.87
75594;BME280;64176;49.156;7.810;2023-08-17T09:45:21;99186.06;;;24.88;70.07
75594;BME280;64176;49.156;7.810;2023-08-17T09:48:08;99188.84;;;25.02;70.14
75594;BME280;64176;49.156;7.810;2023-08-17T09:50:56;99186.72;;;24.93;70.01
75594;BME280;64176;49.156;7.810;2023-08-17T09:53:40;99190.13;;;24.95;69.29
75594;BME280;64176;49.156;7.810;2023-08-17T09:56:24;99194.22;;;25.01;68.11
75594;BME280;64176;49.156;7.810;2023-08-17T09:59:08;99195.22;;;24.98;68.11
75594;BME280;64176;49.156;7.810;2023-08-17T10:01:53;99190.97;;;25.12;68.05
75594;BME280;64176;49.156;7.810;2023-08-17T10:04:38;99197.50;;;24.89;68.52
75594;BME280;64176;49.156;7.810;2023-08-17T10:07:29;99191.78;;;25.29;66.31
75594;BME280;64176;49.156;7.810;2023-08-17T10:10:19;99193.31;;;25.18;67.20
75594;BME280;64176;49.156;7.810;2023-08-17T10:13:12;99185.97;;;25.23;66.95
75594;BME280;64176;49.156;7.810;2023-08-17T10:16:11;99174.84;;;25.48;65.82
75594;BME280;64176;49.156;7.810;2023-08-17T10:22:44;99177.50;;;25.48;65.90
75594;BME280;64176;49.156;7.810;2023-08-17T10:25:33;99167.06;;;25.76;65.02
75594;BME280;64176;49.156;7.810;2023-08-17T10:28:20;99167.72;;;26.09;63.60
75594;BME280;64176;49.156;7.810;2023-08-17T10:31:05;99172.22;;;26.23;63.15
75594;BME280;64176;49.156;7.810;2023-08-17T10:33:51;99165.78;;;26.13;62.39
75594;BME280;64176;49.156;7.810;2023-08-17T10:36:38;99174.06;;;26.07;62.41
75594;BME280;64176;49.156;7.810;2023-08-17T10:39:23;99176.19;;;26.16;63.03
75594;BME280;64176;49.156;7.810;2023-08-17T10:42:09;99179.47;;;26.35;61.99
75594;BME280;64176;49.156;7.810;2023-08-17T10:44:52;99187.06;;;26.70;59.81
75594;BME280;64176;49.156;7.810;2023-08-17T10:47:36;99197.00;;;26.38;60.71
75594;BME280;64176;49.156;7.810;2023-08-17T10:50:23;99194.13;;;26.41;62.79
75594;BME280;64176;49.156;7.810;2023-08-17T10:53:11;99202.81;;;26.73;63.41
75594;BME280;64176;49.156;7.810;2023-08-17T10:55:57;99199.59;;;26.96;61.97
75594;BME280;64176;49.156;7.810;2023-08-17T10:58:44;99218.59;;;26.60;62.56
75594;BME280;64176;49.156;7.810;2023-08-17T11:01:33;99222.16;;;26.45;62.79
75594;BME280;64176;49.156;7.810;2023-08-17T11:04:17;99236.53;;;26.41;63.62
75594;BME280;64176;49.156;7.810;2023-08-17T11:07:02;99233.03;;;26.10;63.61
75594;BME280;64176;49.156;7.810;2023-08-17T11:09:47;99238.22;;;26.28;63.44
75594;BME280;64176;49.156;7.810;2023-08-17T11:12:31;99234.81;;;26.10;62.99
75594;BME280;64176;49.156;7.810;2023-08-17T11:15:15;99236.34;;;26.14;63.50
75594;BME280;64176;49.156;7.810;2023-08-17T11:17:59;99225.13;;;26.25;63.34
75594;BME280;64176;49.156;7.810;2023-08-17T11:20:44;99226.69;;;26.13;63.55
75594;BME280;64176;49.156;7.810;2023-08-17T11:23:30;99246.16;;;25.82;64.76
75594;BME280;64176;49.156;7.810;2023-08-17T11:26:18;99251.94;;;25.57;67.36
75594;BME280;64176;49.156;7.810;2023-08-17T11:29:05;99255.09;;;25.17;69.40
75594;BME280;64176;49.156;7.810;2023-08-17T11:31:50;99258.66;;;24.65;76.40
75594;BME280;64176;49.156;7.810;2023-08-17T11:34:35;99267.69;;;23.91;83.78
75594;BME280;64176;49.156;7.810;2023-08-17T11:37:21;99256.09;;;23.57;88.94
75594;BME280;64176;49.156;7.810;2023-08-17T11:40:05;99258.94;;;23.34;92.93
75594;BME280;64176;49.156;7.810;2023-08-17T11:42:49;99245.06;;;22.92;93.58
75594;BME280;64176;49.156;7.810;2023-08-17T11:45:33;99229.94;;;23.15;97.10
75594;BME280;64176;49.156;7.810;2023-08-17T11:48:21;99220.88;;;23.58;96.69
75594;BME280;64176;49.156;7.810;2023-08-17T11:51:05;99207.16;;;23.69;96.50
75594;BME280;64176;49.156;7.810;2023-08-17T11:53:49;99202.09;;;23.46;96.33
75594;BME280;64176;49.156;7.810;2023-08-17T11:56:34;99198.84;;;23.41;94.08
75594;BME280;64176;49.156;7.810;2023-08-17T11:59:19;99189.22;;;23.02;97.80
75594;BME280;64176;49.156;7.810;2023-08-17T12:02:03;99194.25;;;23.08;98.17
75594;BME280;64176;49.156;7.810;2023-08-17T12:04:46;99190.78;;;23.25;96.00
75594;BME280;64176;49.156;7.810;2023-08-17T12:07:31;99183.59;;;23.29;94.58
75594;BME280;64176;49.156;7.810;2023-08-17T12:10:17;99184.28;;;23.70;95.09
75594;BME280;64176;49.156;7.810;2023-08-17T12:13:05;99177.53;;;23.99;92.18
75594;BME280;64176;49.156;7.810;2023-08-17T12:15:50;99189.06;;;24.32;91.93
75594;BME280;64176;49.156;7.810;2023-08-17T12:18:34;99187.13;;;24.36;90.94
75594;BME280;64176;49.156;7.810;2023-08-17T12:21:22;99190.69;;;24.52;89.48
75594;BME280;64176;49.156;7.810;2023-08-17T12:24:09;99190.84;;;24.64;85.03
75594;BME280;64176;49.156;7.810;2023-08-17T12:26:57;99189.94;;;24.98;85.48
75594;BME280;64176;49.156;7.810;2023-08-17T12:29:47;99174.41;;;24.92;85.35
75594;BME280;64176;49.156;7.810;2023-08-17T12:32:34;99176.59;;;25.17;84.69
75594;BME280;64176;49.156;7.810;2023-08-17T12:35:17;99173.69;;;25.06;83.55
75594;BME280;64176;49.156;7.810;2023-08-17T12:38:03;99165.31;;;25.14;81.93
75594;BME280;64176;49.156;7.810;2023-08-17T12:40:47;99161.63;;;25.32;81.98
75594;BME280;64176;49.156;7.810;2023-08-17T12:43:34;99164.56;;;25.27;79.84
75594;BME280;64176;49.156;7.810;2023-08-17T12:46:18;99155.94;;;25.39;76.92
75594;BME280;64176;49.156;7.810;2023-08-17T12:49:04;99161.03;;;25.43;75.77
75594;BME280;64176;49.156;7.810;2023-08-17T12:51:48;99158.97;;;25.48;77.01
75594;BME280;64176;49.156;7.810;2023-08-17T12:54:32;99151.81;;;25.50;77.10
75594;BME280;64176;49.156;7.810;2023-08-17T12:57:16;99150.75;;;25.52;74.92
75594;BME280;64176;49.156;7.810;2023-08-17T13:00:00;99133.38;;;25.48;76.58
75594;BME280;64176;49.156;7.810;2023-08-17T13:02:44;99132.84;;;25.42;75.81
75594;BME280;64176;49.156;7.810;2023-08-17T13:05:30;99123.72;;;25.63;75.46
75594;BME280;64176;49.156;7.810;2023-08-17T13:08:14;99120.78;;;25.52;74.19
75594;BME280;64176;49.156;7.810;2023-08-17T13:11:00;99113.13;;;25.63;73.21
75594;BME280;64176;49.156;7.810;2023-08-17T13:13:44;99108.09;;;25.88;74.28
75594;BME280;64176;49.156;7.810;2023-08-17T13:16:28;99104.84;;;25.53;75.79
75594;BME280;64176;49.156;7.810;2023-08-17T13:19:12;99104.16;;;25.95;74.08
75594;BME280;64176;49.156;7.810;2023-08-17T13:21:56;99096.69;;;26.02;73.65
75594;BME280;64176;49.156;7.810;2023-08-17T13:24:42;99094.56;;;26.37;71.50
75594;BME280;64176;49.156;7.810;2023-08-17T13:27:27;99089.84;;;25.84;75.23
75594;BME280;64176;49.156;7.810;2023-08-17T13:30:11;99096.00;;;25.98;70.60
75594;BME280;64176;49.156;7.810;2023-08-17T13:32:55;99101.59;;;26.38;71.23
75594;BME280;64176;49.156;7.810;2023-08-17T13:35:40;99109.69;;;26.63;68.26
75594;BME280;64176;49.156;7.810;2023-08-17T13:38:23;99107.91;;;26.35;70.73
75594;BME280;64176;49.156;7.810;2023-08-17T13:41:08;99107.34;;;26.44;69.50
75594;BME280;64176;49.156;7.810;2023-08-17T13:43:52;99092.06;;;26.76;67.72
75594;BME280;64176;49.156;7.810;2023-08-17T13:46:36;99089.59;;;26.73;64.96
75594;BME280;64176;49.156;7.810;2023-08-17T13:49:20;99090.47;;;26.74;66.38
75594;BME280;64176;49.156;7.810;2023-08-17T13:52:07;99084.13;;;26.76;65.30
75594;BME280;64176;49.156;7.810;2023-08-17T13:54:51;99082.75;;;27.12;65.38
75594;BME280;64176;49.156;7.810;2023-08-17T13:57:35;99066.06;;;27.37;64.40
75594;BME280;64176;49.156;7.810;2023-08-17T14:00:19;99074.19;;;27.48;61.30
75594;BME280;64176;49.156;7.810;2023-08-17T14:03:03;99074.66;;;27.40;62.70
75594;BME280;64176;49.156;7.810;2023-08-17T14:05:47;99071.38;;;27.37;61.77
75594;BME280;64176;49.156;7.810;2023-08-17T14:08:31;99069.78;;;27.34;62.26
75594;BME280;64176;49.156;7.810;2023-08-17T14:11:15;99060.84;;;27.35;61.39
75594;BME280;64176;49.156;7.810;2023-08-17T14:13:58;99062.25;;;27.41;62.65
75594;BME280;64176;49.156;7.810;2023-08-17T14:16:45;99072.38;;;27.48;63.50
75594;BME280;64176;49.156;7.810;2023-08-17T14:19:29;99061.63;;;27.10;63.87
75594;BME280;64176;49.156;7.810;2023-08-17T14:22:13;99058.44;;;27.45;62.54
75594;BME280;64176;49.156;7.810;2023-08-17T14:24:57;99056.06;;;27.67;63.16
75594;BME280;64176;49.156;7.810;2023-08-17T14:27:43;99055.69;;;27.46;61.63
75594;BME280;64176;49.156;7.810;2023-08-17T14:30:29;99047.06;;;27.43;61.47
75594;BME280;64176;49.156;7.810;2023-08-17T14:33:13;99053.03;;;27.46;62.00